Terminal Aerodrome Forecast
Issued by NWS

Home | Current Version | Previous Version | Text Only | Print | Product List | Glossary On
Versions: 1 2 3 4 5 6 7 8 9 10 11 12 13
000
FTUS46 KPDT 062300
TAFRDM
TAF
KRDM 062320Z 0700/0724 34006KT P6SM SCT250
     FM070500 VRB05KT P6SM SCT250
     FM072200 34007KT P6SM SCT250=

USA.gov is the U.S. government's official web portal to all federal, state and local government web resources and services.